Time;durP1;ratioP1;P1;durP2;ratioP2;P2;SDS_P1;SDS_P2;PMS_P1;PMS_P2;Temp;Humidity;BMP_temperature;BMP_pressure;BME280_temperature;BME280_humidity;BME280_pressure;Samples;Min_cycle;Max_cycle;Signal;HPM_P1;HPM_P2
2022/10/05 00:00:57;;;;;;;7.47;5.72;;;;;;;16.00;100.00;101683.91;5268142;28;20039;-76
2022/10/05 00:03:35;;;;;;;10.27;6.53;;;;;;;15.88;100.00;101677.16;5266484;28;20474;-76
2022/10/05 00:06:10;;;;;;;7.25;5.60;;;;;;;15.87;100.00;101677.28;5270832;28;20048;-76
2022/10/05 00:08:42;;;;;;;9.00;6.25;;;;;;;15.84;100.00;101680.25;5268994;28;20033;-76
2022/10/05 00:11:14;;;;;;;8.13;5.82;;;;;;;15.84;100.00;101680.25;5268136;28;20354;-76
2022/10/05 00:13:45;;;;;;;10.00;6.47;;;;;;;15.80;100.00;101671.78;5270310;28;20033;-76
2022/10/05 00:16:20;;;;;;;8.18;6.25;;;;;;;15.85;100.00;101679.25;5272415;28;20032;-76
2022/10/05 00:18:52;;;;;;;7.38;6.38;;;;;;;15.84;100.00;101678.44;5267949;28;20485;-76
2022/10/05 00:21:27;;;;;;;7.40;6.30;;;;;;;15.91;100.00;101674.22;5263658;28;20029;-76
2022/10/05 00:23:59;;;;;;;9.30;6.50;;;;;;;15.80;100.00;101664.66;5268286;28;20068;-76
2022/10/05 00:26:32;;;;;;;9.48;7.28;;;;;;;15.80;100.00;101664.66;5263648;28;20064;-76
2022/10/05 00:29:17;;;;;;;9.85;6.72;;;;;;;15.94;100.00;101667.81;5251491;28;20047;-76
2022/10/05 00:31:49;;;;;;;8.93;6.70;;;;;;;15.77;100.00;101664.13;5269821;28;20016;-76
2022/10/05 00:34:20;;;;;;;11.48;6.60;;;;;;;15.77;100.00;101662.31;5270507;28;20374;-76
2022/10/05 00:36:51;;;;;;;8.23;6.25;;;;;;;15.74;100.00;101657.31;5248770;28;20473;-76
2022/10/05 00:39:23;;;;;;;8.93;6.53;;;;;;;15.74;100.00;101654.66;5268084;28;20389;-76
2022/10/05 00:42:21;;;;;;;7.95;6.30;;;;;;;15.88;100.00;101652.56;5270325;28;20052;-76
2022/10/05 00:45:03;;;;;;;9.18;7.40;;;;;;;15.77;100.00;101657.03;5267700;28;20032;-76
2022/10/05 00:47:56;;;;;;;11.00;7.22;;;;;;;15.79;100.00;101664.78;5251168;28;20033;-76
2022/10/05 00:51:12;;;;;;;10.07;7.55;;;;;;;16.10;100.00;101662.75;5262282;28;20017;-76
2022/10/05 00:54:04;;;;;;;10.85;7.18;;;;;;;15.88;100.00;101661.31;5168355;28;20050;-76
2022/10/05 00:56:43;;;;;;;7.78;6.40;;;;;;;15.72;100.00;101655.78;5267574;28;20031;-76
2022/10/05 00:59:42;;;;;;;8.73;7.10;;;;;;;15.87;100.00;101656.16;5264058;28;20381;-76
2022/10/05 01:02:28;;;;;;;9.98;7.07;;;;;;;15.85;100.00;101661.59;5248582;28;20456;-76
2022/10/05 01:05:25;;;;;;;8.10;7.30;;;;;;;15.78;100.00;101658.69;5265910;28;20032;-76
2022/10/05 01:08:22;;;;;;;8.25;7.10;;;;;;;15.74;100.00;101661.75;5266945;28;20044;-76
2022/10/05 01:11:12;;;;;;;11.00;7.13;;;;;;;15.82;100.00;101646.84;5254013;28;20132;-76
2022/10/05 01:14:05;;;;;;;10.23;7.20;;;;;;;15.88;100.00;101649.91;5249120;28;20433;-76
2022/10/05 01:16:49;;;;;;;8.30;7.00;;;;;;;15.82;100.00;101630.16;5264309;28;20032;-76
2022/10/05 01:19:49;;;;;;;9.35;7.60;;;;;;;15.78;100.00;101637.53;5264277;28;20032;-76
2022/10/05 01:22:39;;;;;;;10.13;7.70;;;;;;;15.84;100.00;101627.41;5263647;28;20124;-76
2022/10/05 01:25:33;;;;;;;10.70;7.18;;;;;;;15.88;100.00;101632.22;5268118;28;20115;-76
2022/10/05 01:28:14;;;;;;;8.85;6.95;;;;;;;15.73;100.00;101623.94;5265274;28;20412;-76
2022/10/05 01:31:11;;;;;;;9.90;7.28;;;;;;;15.89;100.00;101622.50;5264192;28;20028;-76
2022/10/05 01:34:10;;;;;;;8.70;7.10;;;;;;;15.72;100.00;101624.94;5270415;28;20036;-76
2022/10/05 01:37:16;;;;;;;10.80;6.97;;;;;;;15.76;100.00;101631.59;5252086;28;20094;-76
2022/10/05 01:40:07;;;;;;;8.63;6.85;;;;;;;15.86;100.00;101615.69;5236541;28;20139;-76
2022/10/05 01:42:57;;;;;;;11.00;7.05;;;;;;;15.68;100.00;101605.06;5268563;28;20036;-76
2022/10/05 01:45:28;;;;;;;10.27;6.97;;;;;;;15.61;100.00;101625.06;5264599;28;20055;-76
2022/10/05 01:48:15;;;;;;;10.00;7.57;;;;;;;15.78;100.00;101611.13;5268035;28;20494;-76
2022/10/05 01:51:15;;;;;;;11.73;7.80;;;;;;;15.85;100.00;101610.56;5267960;28;20275;-76
2022/10/05 01:53:53;;;;;;;7.72;6.80;;;;;;;15.62;100.00;101594.22;5266703;28;20068;-76
2022/10/05 01:56:51;;;;;;;9.55;7.22;;;;;;;15.84;100.00;101601.81;5264755;28;20035;-76
2022/10/05 01:59:42;;;;;;;8.73;7.43;;;;;;;15.80;100.00;101603.06;5263835;28;20035;-76
2022/10/05 02:02:17;;;;;;;8.40;7.20;;;;;;;15.61;100.00;101595.16;5259204;28;20178;-76
2022/10/05 02:04:54;;;;;;;11.38;7.90;;;;;;;15.59;100.00;101590.03;5263494;28;20460;-76
2022/10/05 02:07:41;;;;;;;8.32;7.00;;;;;;;15.70;100.00;101587.25;5263909;28;20060;-76
2022/10/05 02:10:22;;;;;;;12.43;8.35;;;;;;;15.63;100.00;101587.94;5246172;28;20390;-76
2022/10/05 02:13:15;;;;;;;11.43;6.88;;;;;;;15.66;100.00;101580.59;5267482;28;20086;-76
2022/10/05 02:16:03;;;;;;;8.50;7.43;;;;;;;15.70;100.00;101581.97;5266011;28;20711;-76
2022/10/05 02:19:10;;;;;;;9.90;7.22;;;;;;;15.85;100.00;101578.84;5262439;28;20036;-76
2022/10/05 02:21:45;;;;;;;9.27;6.95;;;;;;;15.54;100.00;101571.16;5248017;28;20028;-76
2022/10/05 02:24:22;;;;;;;11.00;7.00;;;;;;;15.57;100.00;101574.34;5265676;28;20089;-76
2022/10/05 02:26:55;;;;;;;9.65;7.28;;;;;;;15.48;100.00;101562.00;5248592;28;20400;-76
2022/10/05 02:29:29;;;;;;;8.32;6.68;;;;;;;15.53;100.00;101569.47;5267324;28;20033;-76
2022/10/05 02:32:05;;;;;;;7.88;7.10;;;;;;;15.53;100.00;101567.69;5265641;28;20397;-76
2022/10/05 02:34:41;;;;;;;8.60;6.97;;;;;;;15.55;100.00;101557.78;5264730;28;20497;-76
2022/10/05 02:37:44;;;;;;;9.27;7.10;;;;;;;15.64;100.00;101550.81;5261792;28;20079;-76
2022/10/05 02:40:42;;;;;;;13.52;7.68;;;;;;;15.76;100.00;101554.16;5267611;28;20402;-76
2022/10/05 02:43:37;;;;;;;13.18;7.03;;;;;;;15.73;100.00;101555.25;5268969;28;20249;-76
2022/10/05 02:46:28;;;;;;;10.93;6.47;;;;;;;15.70;100.00;101549.44;5267830;28;20098;-76
2022/10/05 02:49:34;;;;;;;10.77;6.85;;;;;;;15.69;100.00;101545.13;5269416;28;20128;-76
2022/10/05 02:52:16;;;;;;;10.20;6.72;;;;;;;15.59;100.00;101537.22;5264107;28;20032;-76
2022/10/05 02:54:59;;;;;;;8.35;6.25;;;;;;;15.48;100.00;101524.19;5261220;28;20117;-76
2022/10/05 02:58:00;;;;;;;10.35;6.97;;;;;;;15.76;100.00;101544.41;5250016;28;20031;-76
2022/10/05 03:00:38;;;;;;;8.55;6.65;;;;;;;15.54;100.00;101548.22;5245951;28;20037;-76
2022/10/05 03:03:16;;;;;;;9.32;6.72;;;;;;;15.47;100.00;101535.75;5266341;28;20059;-76
2022/10/05 03:06:01;;;;;;;9.65;6.63;;;;;;;15.60;100.00;101528.31;5262523;28;20036;-76
2022/10/05 03:09:05;;;;;;;7.50;6.65;;;;;;;15.67;100.00;101525.94;5267969;28;20452;-76
2022/10/05 03:12:01;;;;;;;9.00;6.30;;;;;;;15.63;100.00;101525.38;5245890;28;20546;-76
2022/10/05 03:15:08;;;;;;;10.00;6.53;;;;;;;15.67;100.00;101526.78;5262314;28;20033;-76
2022/10/05 03:17:57;;;;;;;10.15;6.82;;;;;;;15.60;100.00;101527.47;5259801;28;20044;-76
2022/10/05 03:20:44;;;;;;;9.23;6.63;;;;;;;15.50;100.00;101509.06;5266898;28;20020;-76
2022/10/05 03:23:35;;;;;;;8.57;6.38;;;;;;;15.58;100.00;101515.25;5264607;28;20056;-76
2022/10/05 03:26:49;;;;;;;8.15;6.18;;;;;;;15.61;100.00;101516.78;5264531;28;20025;-76
2022/10/05 03:29:28;;;;;;;;;;;;;;;15.96;100.00;101521.34;5266496;28;20438;-76
2022/10/05 03:32:20;;;;;;;9.98;6.47;;;;;;;15.48;100.00;101516.28;5270417;28;19912;-76
2022/10/05 03:35:16;;;;;;;9.88;7.07;;;;;;;15.61;100.00;101521.19;5267151;28;20042;-76
2022/10/05 03:37:48;;;;;;;7.10;6.38;;;;;;;15.34;100.00;101528.13;5252455;28;20029;-76
2022/10/05 03:40:35;;;;;;;9.48;6.55;;;;;;;15.49;100.00;101516.16;5250694;28;20017;-76
2022/10/05 03:43:42;;;;;;;6.85;6.15;;;;;;;15.49;100.00;101504.72;5264321;28;20515;-76
2022/10/05 03:46:16;;;;;;;9.18;6.80;;;;;;;15.35;100.00;101513.97;5248086;28;20029;-76
2022/10/05 03:48:51;;;;;;;7.85;6.47;;;;;;;15.29;100.00;101512.72;5270887;28;20423;-76
2022/10/05 03:51:37;;;;;;;10.35;7.22;;;;;;;15.42;100.00;101515.06;5269331;28;20306;-76
2022/10/05 03:54:16;;;;;;;9.60;6.90;;;;;;;15.30;100.00;101521.47;5267117;28;20033;-76
2022/10/05 03:57:00;;;;;;;9.93;7.70;;;;;;;15.32;100.00;101515.09;5271031;28;20028;-76
2022/10/05 03:59:38;;;;;;;10.82;7.13;;;;;;;15.22;100.00;101511.63;5265387;28;20024;-76
2022/10/05 04:02:35;;;;;;;8.90;7.05;;;;;;;15.47;100.00;101518.09;5260355;28;20027;-76
2022/10/05 04:05:09;;;;;;;9.77;7.70;;;;;;;15.29;100.00;101522.47;5262440;28;20048;-76
2022/10/05 04:08:03;;;;;;;12.05;8.73;;;;;;;15.41;100.00;101517.81;5252841;28;20083;-76
2022/10/05 04:10:42;;;;;;;8.65;7.13;;;;;;;15.30;100.00;101518.84;5269908;28;20035;-76
2022/10/05 04:13:35;;;;;;;8.38;7.28;;;;;;;15.32;100.00;101519.53;5267907;28;20027;-77
2022/10/05 04:16:28;;;;;;;9.47;7.80;;;;;;;15.38;100.00;101512.81;5267735;28;20612;-77
2022/10/05 04:19:20;;;;;;;10.60;7.55;;;;;;;15.38;100.00;101518.97;5268539;28;21134;-77
2022/10/05 04:22:14;;;;;;;9.60;8.10;;;;;;;15.43;100.00;101521.16;5288459;22;20102;-79
2022/10/05 04:25:11;;;;;;;10.18;7.53;;;;;;;15.28;100.00;101524.28;5276277;28;20031;-79
2022/10/05 04:28:03;;;;;;;10.65;8.07;;;;;;;15.36;100.00;101514.78;5280627;28;20122;-79
2022/10/05 04:30:39;;;;;;;11.73;8.20;;;;;;;15.20;100.00;101510.13;5280634;28;20103;-79
2022/10/05 04:33:12;;;;;;;10.43;7.63;;;;;;;15.13;100.00;101501.94;5272242;28;20082;-79
2022/10/05 04:35:46;;;;;;;10.00;7.53;;;;;;;15.20;100.00;101505.69;5269417;28;20033;-79
2022/10/05 04:38:42;;;;;;;10.10;7.15;;;;;;;15.28;100.00;101497.03;5267733;28;20048;-79
2022/10/05 04:41:25;;;;;;;11.10;7.45;;;;;;;15.28;100.00;101503.16;5273389;28;20499;-79
2022/10/05 04:44:32;;;;;;;9.55;6.85;;;;;;;15.32;100.00;101506.34;5268275;28;20032;-79
2022/10/05 04:47:34;;;;;;;11.48;6.22;;;;;;;15.19;100.00;101498.75;5253172;28;20061;-79
2022/10/05 04:50:08;;;;;;;8.02;6.45;;;;;;;15.21;100.00;101494.13;5252462;28;20091;-79
2022/10/05 04:53:12;;;;;;;7.35;6.38;;;;;;;15.38;100.00;101497.00;5270249;28;20529;-79
2022/10/05 04:56:00;;;;;;;8.25;5.20;;;;;;;15.41;100.00;101496.69;5267406;28;20273;-78
2022/10/05 04:59:03;;;;;;;9.50;5.50;;;;;;;15.50;100.00;101493.22;5269566;28;20077;-79
2022/10/05 05:01:50;;;;;;;8.25;6.15;;;;;;;15.33;100.00;101485.06;5265086;28;20146;-79
2022/10/05 05:04:40;;;;;;;8.30;5.32;;;;;;;15.26;100.00;101489.25;5241922;28;20027;-77
2022/10/05 05:07:29;;;;;;;9.30;5.30;;;;;;;15.35;100.00;101478.81;5257827;28;20032;-77
2022/10/05 05:10:19;;;;;;;8.07;5.63;;;;;;;15.46;100.00;101483.91;5269590;28;20492;-77
2022/10/05 05:13:09;;;;;;;7.57;5.43;;;;;;;15.41;100.00;101480.84;5267355;28;20453;-75
2022/10/05 05:16:00;;;;;;;7.40;5.60;;;;;;;15.49;100.00;101484.44;5268819;28;20024;-76
2022/10/05 05:18:44;;;;;;;6.28;4.97;;;;;;;15.27;100.00;101487.47;5265276;28;20390;-76
2022/10/05 05:21:58;;;;;;;5.70;5.10;;;;;;;15.48;100.00;101485.41;5262732;28;20025;-76
2022/10/05 05:24:39;;;;;;;;;;;;;;;15.88;100.00;101491.34;5266933;28;20493;-76
2022/10/05 05:27:32;;;;;;;7.25;4.82;;;;;;;15.35;100.00;101481.47;5268201;28;20464;-76
2022/10/05 05:30:30;;;;;;;6.57;5.30;;;;;;;15.50;100.00;101483.47;5261785;28;20393;-76
2022/10/05 05:33:01;;;;;;;7.13;5.78;;;;;;;15.24;100.00;101483.31;5262772;28;20358;-76
2022/10/05 05:35:51;;;;;;;7.47;5.97;;;;;;;15.45;100.00;101482.22;5266311;28;20040;-76
2022/10/05 05:38:28;;;;;;;8.80;5.90;;;;;;;15.22;100.00;101477.31;5265103;28;20274;-76
2022/10/05 05:41:12;;;;;;;8.68;5.70;;;;;;;15.35;100.00;101482.28;5264268;28;20523;-76
2022/10/05 05:44:08;;;;;;;7.97;5.07;;;;;;;15.42;100.00;101469.31;5262644;28;20631;-76
2022/10/05 05:46:47;;;;;;;9.32;5.97;;;;;;;15.27;100.00;101467.19;5260850;28;20477;-76
2022/10/05 05:49:25;;;;;;;8.02;5.38;;;;;;;15.28;100.00;101468.84;5267121;28;20021;-76
2022/10/05 05:52:11;;;;;;;7.00;5.13;;;;;;;15.22;100.00;101469.41;5271229;28;20100;-76
2022/10/05 05:54:52;;;;;;;7.43;5.07;;;;;;;15.13;100.00;101446.53;5260996;28;20504;-76
2022/10/05 05:57:29;;;;;;;5.97;4.65;;;;;;;15.29;100.00;101465.22;5262043;28;20096;-76
2022/10/05 06:00:14;;;;;;;7.05;4.88;;;;;;;15.39;100.00;101464.34;5261173;28;20046;-76
2022/10/05 06:03:10;;;;;;;5.32;4.28;;;;;;;15.45;100.00;101463.75;5267519;28;20111;-76
2022/10/05 06:05:46;;;;;;;6.75;5.00;;;;;;;15.24;100.00;101458.72;5262432;28;20024;-76
2022/10/05 06:08:35;;;;;;;7.93;4.70;;;;;;;15.41;100.00;101460.56;5258556;28;20043;-76
2022/10/05 06:11:21;;;;;;;14.40;5.63;;;;;;;15.36;100.00;101459.34;5263905;28;20028;-76
2022/10/05 06:13:59;;;;;;;6.72;4.38;;;;;;;15.18;100.00;101454.84;5263835;28;20075;-76
2022/10/05 06:16:37;;;;;;;4.85;3.85;;;;;;;15.32;100.00;101467.56;5263705;28;20029;-77
2022/10/05 06:19:21;;;;;;;5.80;4.25;;;;;;;15.41;100.00;101465.00;5264535;28;20028;-76
2022/10/05 06:22:13;;;;;;;7.88;4.13;;;;;;;15.45;100.00;101455.81;5233523;28;20473;-76
2022/10/05 06:25:03;;;;;;;5.95;3.85;;;;;;;15.40;100.00;101458.09;5263850;28;20034;-76
2022/10/05 06:28:01;;;;;;;6.57;4.28;;;;;;;15.54;100.00;101457.59;5262832;28;20033;-76
2022/10/05 06:30:38;;;;;;;4.60;4.00;;;;;;;15.41;100.00;101455.28;5262248;28;20048;-75
2022/10/05 06:33:33;;;;;;;6.28;4.22;;;;;;;15.47;100.00;101453.88;5259601;28;20474;-76
2022/10/05 06:36:21;;;;;;;6.82;4.38;;;;;;;15.50;100.00;101453.59;5261247;28;20103;-76
2022/10/05 06:39:25;;;;;;;4.47;3.38;;;;;;;15.51;100.00;101455.25;5256252;28;20033;-76
2022/10/05 06:42:15;;;;;;;;;;;;;;;15.95;100.00;101458.06;5239080;28;20104;-76
2022/10/05 06:44:52;;;;;;;5.40;4.20;;;;;;;15.44;100.00;101459.44;5263307;28;20239;-76
2022/10/05 06:47:48;;;;;;;5.18;3.90;;;;;;;15.52;100.00;101468.28;5261555;28;20028;-76
2022/10/05 06:50:28;;;;;;;8.23;4.70;;;;;;;15.55;100.00;101469.81;5259292;28;20071;-76
2022/10/05 06:53:16;;;;;;;7.10;4.18;;;;;;;15.42;100.00;101461.38;5265134;28;20336;-76
2022/10/05 06:55:54;;;;;;;7.25;4.47;;;;;;;15.47;100.00;101461.81;5264676;28;20036;-76
2022/10/05 06:58:39;;;;;;;9.10;4.20;;;;;;;15.57;100.00;101467.88;5261514;28;20032;-76
2022/10/05 07:01:20;;;;;;;7.38;4.53;;;;;;;15.58;100.00;101473.00;5263478;28;20017;-76
2022/10/05 07:04:48;;;;;;;6.68;4.65;;;;;;;15.87;100.00;101466.72;5267867;28;20558;-76
2022/10/05 07:07:27;;;;;;;8.18;4.03;;;;;;;15.63;100.00;101464.63;5183689;28;20058;-76
2022/10/05 07:10:14;;;;;;;5.78;4.55;;;;;;;15.78;100.00;101460.53;5185631;28;20034;-76
2022/10/05 07:13:20;;;;;;;5.75;4.03;;;;;;;15.85;100.00;101460.78;5243391;28;20064;-76
2022/10/05 07:16:16;;;;;;;7.38;3.95;;;;;;;15.88;100.00;101457.84;5263965;28;20043;-75
2022/10/05 07:19:02;;;;;;;4.90;3.70;;;;;;;15.71;100.00;101462.09;5260996;28;20131;-76
2022/10/05 07:21:48;;;;;;;5.72;4.43;;;;;;;15.89;100.00;101462.13;5262056;28;20032;-76
2022/10/05 07:24:33;;;;;;;7.93;4.30;;;;;;;15.89;100.00;101463.94;5264041;28;20060;-76
2022/10/05 07:27:16;;;;;;;5.60;3.92;;;;;;;15.94;100.00;101466.97;5264526;28;20075;-76
2022/10/05 07:30:19;;;;;;;5.28;4.63;;;;;;;16.05;100.00;101470.22;5265318;28;20029;-76
2022/10/05 07:33:05;;;;;;;5.13;4.18;;;;;;;15.96;100.00;101465.84;5270864;28;20035;-75
2022/10/05 07:38:39;;;;;;;6.05;4.00;;;;;;;16.02;100.00;101459.09;5262106;28;20037;-76
2022/10/05 07:41:24;;;;;;;4.43;3.80;;;;;;;16.09;100.00;101468.09;5259039;28;20086;-76
2022/10/05 07:44:17;;;;;;;7.03;4.35;;;;;;;16.10;100.00;101461.84;5262846;28;20108;-75
2022/10/05 07:47:09;;;;;;;5.97;4.15;;;;;;;16.28;100.00;101464.47;5266202;28;20059;-76
2022/10/05 07:50:01;;;;;;;8.07;4.07;;;;;;;16.25;100.00;101470.91;5265951;28;20115;-76
2022/10/05 07:52:32;;;;;;;7.85;4.32;;;;;;;16.16;100.00;101473.63;5263008;28;20159;-76
2022/10/05 07:55:24;;;;;;;5.40;4.03;;;;;;;16.36;100.00;101466.34;5269159;28;20537;-76
2022/10/05 07:58:16;;;;;;;5.88;3.92;;;;;;;16.42;100.00;101471.88;5266911;28;20295;-76
2022/10/05 08:01:01;;;;;;;8.55;3.90;;;;;;;16.32;100.00;101465.00;5274148;28;20473;-76
2022/10/05 08:03:57;;;;;;;6.22;3.70;;;;;;;16.38;100.00;101472.34;5266855;28;20036;-76
2022/10/05 08:06:41;;;;;;;5.15;3.63;;;;;;;16.40;100.00;101455.34;5266853;28;20060;-76
2022/10/05 08:09:50;;;;;;;7.22;3.78;;;;;;;16.63;100.00;101470.69;5268781;28;20544;-76
2022/10/05 08:12:30;;;;;;;5.28;3.42;;;;;;;16.52;100.00;101474.44;5269116;28;20108;-76
2022/10/05 08:15:13;;;;;;;5.93;3.60;;;;;;;16.60;100.00;101455.97;5260098;28;20051;-77
2022/10/05 08:18:01;;;;;;;4.75;3.38;;;;;;;16.73;100.00;101460.84;5264568;28;20059;-76
2022/10/05 08:20:41;;;;;;;7.68;3.85;;;;;;;16.65;100.00;101451.03;5257775;28;20115;-76
2022/10/05 08:23:29;;;;;;;3.85;3.42;;;;;;;16.81;100.00;101446.88;5265145;28;20059;-76
2022/10/05 08:26:36;;;;;;;4.72;3.13;;;;;;;17.01;100.00;101449.16;5269420;28;20104;-76
2022/10/05 08:29:36;;;;;;;5.43;3.13;;;;;;;16.92;100.00;101452.72;5247072;28;20060;-76
2022/10/05 08:32:30;;;;;;;7.03;3.78;;;;;;;17.03;100.00;101443.69;5266366;28;20057;-77
2022/10/05 08:35:20;;;;;;;;;;;;;;;17.45;100.00;101445.53;5266331;28;20393;-78
2022/10/05 08:37:52;;;;;;;4.10;2.83;;;;;;;17.00;100.00;101441.34;5267000;28;19912;-78
2022/10/05 08:40:42;;;;;;;6.57;3.47;;;;;;;17.15;100.00;101423.06;5267331;28;20493;-77
2022/10/05 08:43:33;;;;;;;4.43;3.08;;;;;;;17.19;100.00;101433.16;5263549;28;20443;-78
2022/10/05 08:46:25;;;;;;;6.70;3.65;;;;;;;17.16;100.00;101438.81;5260836;28;20032;-77
2022/10/05 08:49:27;;;;;;;5.72;3.40;;;;;;;17.44;100.00;101435.94;5264048;28;20385;-77
2022/10/05 08:52:22;;;;;;;4.38;3.00;;;;;;;17.35;100.00;101442.16;5266157;28;20032;-77
2022/10/05 08:55:32;;;;;;;5.20;3.30;;;;;;;17.55;100.00;101429.50;5267920;28;20043;-78
2022/10/05 08:58:15;;;;;;;5.25;3.03;;;;;;;17.53;100.00;101434.94;5263528;28;20413;-75
2022/10/05 09:00:53;;;;;;;;;;;;;;;17.99;100.00;101435.41;5267465;28;20405;-77
2022/10/05 09:03:57;;;;;;;5.38;3.20;;;;;;;17.63;100.00;101426.88;5269284;28;19916;-77
2022/10/05 09:06:56;;;;;;;4.65;2.90;;;;;;;17.78;100.00;101429.75;5264448;28;20037;-78
2022/10/05 09:09:54;;;;;;;5.30;2.97;;;;;;;17.86;100.00;101425.28;5265540;28;21104;-77
2022/10/05 09:13:10;;;;;;;6.65;3.08;;;;;;;17.80;100.00;101431.22;5269928;28;20048;-78
2022/10/05 09:16:09;;;;;;;5.03;2.72;;;;;;;17.88;100.00;101418.03;5238145;28;20074;-77
2022/10/05 09:19:21;;;;;;;5.18;2.70;;;;;;;17.98;100.00;101426.63;5266573;28;20478;-77
2022/10/05 09:22:32;;;;;;;6.97;2.88;;;;;;;18.00;100.00;101402.63;5268825;28;20171;-78
2022/10/05 09:25:20;;;;;;;5.57;2.50;;;;;;;18.03;100.00;101409.41;5217948;28;20048;-78
2022/10/05 09:28:26;;;;;;;4.40;2.50;;;;;;;18.18;100.00;101419.19;5263869;28;20111;-77
2022/10/05 09:31:25;;;;;;;4.95;2.47;;;;;;;18.26;100.00;101415.72;5264805;28;20064;-77
2022/10/05 09:34:18;;;;;;;3.90;2.90;;;;;;;18.35;100.00;101414.69;5266859;28;20025;-77
2022/10/05 09:37:01;;;;;;;3.17;2.42;;;;;;;18.20;100.00;101419.03;5267189;28;20115;-77
2022/10/05 09:39:51;;;;;;;;;;;;;;;18.78;100.00;101409.19;5261047;28;20063;-78
2022/10/05 09:42:46;;;;;;;4.43;2.83;;;;;;;18.29;100.00;101418.00;5268852;28;19916;-77
2022/10/05 09:45:34;;;;;;;5.25;2.75;;;;;;;18.32;100.00;101416.84;5259969;28;20025;-77
2022/10/05 09:48:05;;;;;;;6.80;3.17;;;;;;;18.24;100.00;101407.09;5260994;28;20031;-77
2022/10/05 09:50:37;;;;;;;3.75;2.65;;;;;;;18.34;100.00;101402.44;5263842;28;20033;-77
2022/10/05 09:53:39;;;;;;;5.25;3.05;;;;;;;18.56;100.00;101386.81;5264009;28;20417;-78
2022/10/05 09:56:19;;;;;;;4.90;2.42;;;;;;;18.39;100.00;101400.09;5265153;28;20107;-78
2022/10/05 09:59:16;;;;;;;4.15;2.60;;;;;;;18.49;100.00;101391.97;5261809;28;20452;-76
2022/10/05 10:02:03;;;;;;;4.70;2.53;;;;;;;18.57;100.00;101394.63;5270119;28;20025;-77
2022/10/05 10:05:00;;;;;;;5.53;2.45;;;;;;;18.69;100.00;101389.78;5265284;28;20036;-77
2022/10/05 10:08:03;;;;;;;6.40;2.63;;;;;;;18.81;100.00;101392.91;5254344;28;20146;-77
2022/10/05 10:10:59;;;;;;;5.27;2.40;;;;;;;18.85;100.00;101381.78;5253414;28;20123;-77
2022/10/05 10:14:08;;;;;;;3.65;2.40;;;;;;;18.94;100.00;101377.25;5262322;28;20352;-76
2022/10/05 10:16:52;;;;;;;5.80;2.50;;;;;;;19.01;100.00;101385.38;5260199;28;20042;-78
2022/10/05 10:19:42;;;;;;;6.03;2.53;;;;;;;18.85;100.00;101379.13;5265812;28;20515;-77
2022/10/05 10:23:00;;;;;;;3.50;2.25;;;;;;;19.30;100.00;101376.78;5262997;28;20506;-77
2022/10/05 10:26:00;;;;;;;4.35;2.25;;;;;;;19.30;100.00;101368.81;5265818;28;20082;-77
2022/10/05 10:28:32;;;;;;;5.40;2.80;;;;;;;19.24;100.00;101357.03;5264779;28;20025;-77
2022/10/05 10:31:41;;;;;;;6.63;2.30;;;;;;;19.58;100.00;101361.16;5248212;28;20144;-77
2022/10/05 10:34:44;;;;;;;8.40;2.65;;;;;;;19.57;100.00;101357.69;5265464;28;20060;-77
2022/10/05 10:37:33;;;;;;;5.38;2.45;;;;;;;19.49;100.00;101362.22;5263919;28;20474;-77
2022/10/05 10:40:37;;;;;;;4.72;2.40;;;;;;;19.58;100.00;101348.69;5262648;28;20037;-77
2022/10/05 10:43:49;;;;;;;4.63;2.47;;;;;;;19.72;100.00;101347.13;5269349;28;20690;-77
2022/10/05 10:46:59;;;;;;;3.08;2.15;;;;;;;19.78;100.00;101348.28;5270119;28;20386;-77
2022/10/05 10:49:39;;;;;;;5.80;2.80;;;;;;;19.78;100.00;101337.63;5266313;28;20037;-77
2022/10/05 10:52:30;;;;;;;3.58;2.10;;;;;;;19.71;100.00;101342.00;5266045;28;20492;-77
2022/10/05 10:55:37;;;;;;;5.85;1.88;;;;;;;19.83;100.00;101337.91;5270321;28;20398;-77
2022/10/05 10:58:20;;;;;;;8.20;2.58;;;;;;;19.97;100.00;101331.81;5267837;28;20046;-77
2022/10/05 11:01:17;;;;;;;8.77;2.30;;;;;;;20.14;100.00;101330.66;5269373;28;20103;-77
2022/10/05 11:04:26;;;;;;;7.38;2.28;;;;;;;20.23;100.00;101310.13;5265386;28;20063;-77
2022/10/05 11:07:22;;;;;;;7.97;2.42;;;;;;;20.34;100.00;101327.44;5263183;28;20052;-77
2022/10/05 11:10:18;;;;;;;7.07;2.10;;;;;;;20.48;100.00;101318.66;5267527;28;20036;-77
2022/10/05 11:13:08;;;;;;;3.10;1.60;;;;;;;20.50;100.00;101314.03;5270381;28;20079;-77
2022/10/05 11:16:06;;;;;;;5.05;1.90;;;;;;;20.48;100.00;101315.19;5270933;28;20039;-77
2022/10/05 11:19:15;;;;;;;5.93;1.92;;;;;;;20.49;100.00;101332.78;5268441;28;20366;-77
2022/10/05 11:22:06;;;;;;;3.97;1.83;;;;;;;20.35;100.00;101316.66;5268932;28;20025;-78
2022/10/05 11:24:49;;;;;;;5.40;2.25;;;;;;;20.42;100.00;101320.22;5270299;28;20029;-78
2022/10/05 11:27:42;;;;;;;5.43;1.70;;;;;;;20.37;100.00;101306.63;5266933;28;20155;-78
2022/10/05 11:30:55;;;;;;;6.68;2.33;;;;;;;20.53;100.00;101308.34;5266062;28;20036;-77
2022/10/05 11:33:57;;;;;;;3.50;1.50;;;;;;;20.60;100.00;101301.25;5264646;28;20020;-78
2022/10/05 11:36:46;;;;;;;6.05;1.75;;;;;;;20.76;100.00;101296.72;5270097;28;20032;-78
2022/10/05 11:39:49;;;;;;;4.63;1.80;;;;;;;20.68;100.00;101286.19;5267691;28;20115;-78
2022/10/05 11:42:56;;;;;;;6.38;1.90;;;;;;;20.89;100.00;101289.72;5267779;28;20025;-78
2022/10/05 11:45:39;;;;;;;6.57;1.65;;;;;;;20.95;100.00;101285.50;5267165;28;20497;-77
2022/10/05 11:48:13;;;;;;;5.90;1.60;;;;;;;20.88;100.00;101271.28;5266511;28;20066;-78
2022/10/05 11:51:07;;;;;;;5.53;1.88;;;;;;;21.00;100.00;101274.28;5266005;28;20029;-78
2022/10/05 11:53:47;;;;;;;7.00;1.85;;;;;;;21.15;100.00;101280.38;5267887;28;20028;-77
2022/10/05 11:56:34;;;;;;;5.90;2.00;;;;;;;21.32;100.00;101270.28;5248339;28;20036;-77
2022/10/05 11:59:18;;;;;;;5.00;2.00;;;;;;;21.18;100.00;101249.88;5263291;28;20521;-77
2022/10/05 12:02:19;;;;;;;5.65;1.95;;;;;;;21.42;100.00;101246.84;5266815;28;20035;-77
2022/10/05 12:04:55;;;;;;;8.70;2.25;;;;;;;21.60;100.00;101249.06;5266390;28;20029;-77
2022/10/05 12:07:41;;;;;;;7.25;1.67;;;;;;;21.54;100.00;101239.16;5264895;28;20456;-77
2022/10/05 12:10:26;;;;;;;7.10;2.00;;;;;;;21.53;100.00;101237.50;5266258;28;20035;-78
2022/10/05 12:13:17;;;;;;;4.60;1.83;;;;;;;21.51;100.00;101227.03;5268156;28;20112;-77
2022/10/05 12:16:01;;;;;;;4.32;1.50;;;;;;;21.60;100.00;101217.06;5265482;28;20083;-77
2022/10/05 12:18:32;;;;;;;5.43;1.60;;;;;;;21.64;100.00;101229.00;5265011;28;20502;-77
2022/10/05 12:21:10;;;;;;;5.57;1.60;;;;;;;21.51;100.00;101224.34;5266013;28;20055;-78
2022/10/05 12:23:48;;;;;;;3.80;1.67;;;;;;;21.42;100.00;101219.38;5270343;28;20394;-77
2022/10/05 12:26:43;;;;;;;6.93;1.80;;;;;;;21.62;100.00;101213.16;5263332;28;20089;-77
2022/10/05 12:29:32;;;;;;;4.90;1.42;;;;;;;21.45;100.00;101213.66;5264217;28;20027;-77
2022/10/05 12:32:21;;;;;;;5.05;1.50;;;;;;;21.85;100.00;101212.09;5261287;28;20028;-77
2022/10/05 12:35:15;;;;;;;14.15;2.03;;;;;;;22.06;100.00;101206.69;5267032;28;20389;-77
2022/10/05 12:37:56;;;;;;;5.88;1.83;;;;;;;22.21;100.00;101203.13;5268427;28;20033;-78
2022/10/05 12:40:57;;;;;;;6.70;1.58;;;;;;;22.29;100.00;101217.09;5267926;28;20029;-78
2022/10/05 12:43:45;;;;;;;9.77;2.15;;;;;;;22.14;100.00;101208.41;5251418;28;20032;-78
2022/10/05 12:46:23;;;;;;;10.05;1.60;;;;;;;22.14;100.00;101218.25;5267344;28;20032;-77
2022/10/05 12:49:03;;;;;;;5.40;1.63;;;;;;;21.92;100.00;101214.81;5265233;28;20032;-78
2022/10/05 12:51:41;;;;;;;7.20;1.80;;;;;;;21.95;100.00;101222.44;5259212;28;20123;-78
2022/10/05 12:54:20;;;;;;;2.75;1.50;;;;;;;21.78;100.00;101219.22;5249988;28;20037;-78
2022/10/05 12:57:18;;;;;;;4.70;1.50;;;;;;;22.15;100.00;101215.38;5270615;28;20024;-78
2022/10/05 12:59:58;;;;;;;7.20;1.48;;;;;;;22.04;100.00;101223.91;5260994;28;20036;-77